sensor_id;sensor_type;location;lat;lon;timestamp;temperature;humidity
13850;DHT22;6995;52.618;13.488;2024-02-15T00:01:41;9.90;99.90
13850;DHT22;6995;52.618;13.488;2024-02-15T00:04:10;9.90;99.90
13850;DHT22;6995;52.618;13.488;2024-02-15T00:06:36;10.00;99.90
13850;DHT22;6995;52.618;13.488;2024-02-15T00:09:02;9.90;99.90
13850;DHT22;6995;52.618;13.488;2024-02-15T00:11:28;10.00;99.90
13850;DHT22;6995;52.618;13.488;2024-02-15T00:13:54;10.00;99.90
13850;DHT22;6995;52.618;13.488;2024-02-15T00:16:21;10.00;99.90
13850;DHT22;6995;52.618;13.488;2024-02-15T00:18:47;10.00;99.90
13850;DHT22;6995;52.618;13.488;2024-02-15T00:21:14;10.00;99.90
13850;DHT22;6995;52.618;13.488;2024-02-15T00:23:41;10.00;99.90
13850;DHT22;6995;52.618;13.488;2024-02-15T00:26:07;10.10;99.90
13850;DHT22;6995;52.618;13.488;2024-02-15T00:28:35;10.00;99.90
13850;DHT22;6995;52.618;13.488;2024-02-15T00:31:01;10.10;99.90
13850;DHT22;6995;52.618;13.488;2024-02-15T00:33:29;10.10;99.90
13850;DHT22;6995;52.618;13.488;2024-02-15T00:35:54;10.10;99.90
13850;DHT22;6995;52.618;13.488;2024-02-15T00:38:20;10.10;99.90
13850;DHT22;6995;52.618;13.488;2024-02-15T00:40:45;10.10;99.90
13850;DHT22;6995;52.618;13.488;2024-02-15T00:43:11;10.10;99.90
13850;DHT22;6995;52.618;13.488;2024-02-15T00:45:37;10.10;94.80
13850;DHT22;6995;52.618;13.488;2024-02-15T00:48:02;10.10;99.90
13850;DHT22;6995;52.618;13.488;2024-02-15T00:50:28;10.10;99.90
13850;DHT22;6995;52.618;13.488;2024-02-15T00:52:54;10.10;64.10
13850;DHT22;6995;52.618;13.488;2024-02-15T00:55:20;10.10;99.00
13850;DHT22;6995;52.618;13.488;2024-02-15T00:57:45;10.20;99.90
13850;DHT22;6995;52.618;13.488;2024-02-15T01:00:11;10.10;49.50
13850;DHT22;6995;52.618;13.488;2024-02-15T01:02:38;10.20;42.20
13850;DHT22;6995;52.618;13.488;2024-02-15T01:05:04;10.20;19.70
13850;DHT22;6995;52.618;13.488;2024-02-15T01:07:30;10.30;23.00
13850;DHT22;6995;52.618;13.488;2024-02-15T01:09:55;10.20;1.00
13850;DHT22;6995;52.618;13.488;2024-02-15T01:12:21;10.20;2.70
13850;DHT22;6995;52.618;13.488;2024-02-15T01:14:46;10.30;1.00
13850;DHT22;6995;52.618;13.488;2024-02-15T01:17:13;10.30;1.00
13850;DHT22;6995;52.618;13.488;2024-02-15T01:19:39;10.30;1.00
13850;DHT22;6995;52.618;13.488;2024-02-15T01:22:06;10.30;1.00
13850;DHT22;6995;52.618;13.488;2024-02-15T01:24:31;10.30;1.00
13850;DHT22;6995;52.618;13.488;2024-02-15T01:26:58;10.30;1.00
13850;DHT22;6995;52.618;13.488;2024-02-15T01:29:23;10.20;6.50
13850;DHT22;6995;52.618;13.488;2024-02-15T01:31:51;10.20;56.40
13850;DHT22;6995;52.618;13.488;2024-02-15T01:34:17;10.30;84.80
13850;DHT22;6995;52.618;13.488;2024-02-15T01:36:42;10.30;92.20
13850;DHT22;6995;52.618;13.488;2024-02-15T01:39:08;10.20;81.10
13850;DHT22;6995;52.618;13.488;2024-02-15T01:41:33;10.20;99.90
13850;DHT22;6995;52.618;13.488;2024-02-15T01:43:59;10.20;99.90
13850;DHT22;6995;52.618;13.488;2024-02-15T01:46:25;10.20;99.90
13850;DHT22;6995;52.618;13.488;2024-02-15T01:48:51;10.30;99.90
13850;DHT22;6995;52.618;13.488;2024-02-15T01:51:17;10.20;99.90
13850;DHT22;6995;52.618;13.488;2024-02-15T01:53:43;10.30;99.90
13850;DHT22;6995;52.618;13.488;2024-02-15T01:56:12;10.30;99.90
13850;DHT22;6995;52.618;13.488;2024-02-15T01:58:40;10.20;99.90
13850;DHT22;6995;52.618;13.488;2024-02-15T02:01:06;10.20;99.90
13850;DHT22;6995;52.618;13.488;2024-02-15T02:03:32;10.30;99.90
13850;DHT22;6995;52.618;13.488;2024-02-15T02:05:58;10.20;99.90
13850;DHT22;6995;52.618;13.488;2024-02-15T02:08:25;10.20;99.90
13850;DHT22;6995;52.618;13.488;2024-02-15T02:10:52;10.20;99.90
13850;DHT22;6995;52.618;13.488;2024-02-15T02:13:17;10.20;99.90
13850;DHT22;6995;52.618;13.488;2024-02-15T02:15:44;10.30;99.90
13850;DHT22;6995;52.618;13.488;2024-02-15T02:18:09;10.20;99.90
13850;DHT22;6995;52.618;13.488;2024-02-15T02:20:36;10.20;99.90
13850;DHT22;6995;52.618;13.488;2024-02-15T02:23:09;10.20;1.00
13850;DHT22;6995;52.618;13.488;2024-02-15T02:25:35;10.30;1.00
13850;DHT22;6995;52.618;13.488;2024-02-15T02:28:01;10.30;1.00
13850;DHT22;6995;52.618;13.488;2024-02-15T02:30:27;10.20;1.00
13850;DHT22;6995;52.618;13.488;2024-02-15T02:32:56;10.20;1.00
13850;DHT22;6995;52.618;13.488;2024-02-15T02:35:29;10.20;1.00
13850;DHT22;6995;52.618;13.488;2024-02-15T02:37:56;10.30;1.00
13850;DHT22;6995;52.618;13.488;2024-02-15T02:40:21;10.30;1.00
13850;DHT22;6995;52.618;13.488;2024-02-15T02:42:52;10.30;1.00
13850;DHT22;6995;52.618;13.488;2024-02-15T02:45:19;10.30;1.00
13850;DHT22;6995;52.618;13.488;2024-02-15T02:47:46;10.30;99.90
13850;DHT22;6995;52.618;13.488;2024-02-15T02:50:13;10.30;1.00
13850;DHT22;6995;52.618;13.488;2024-02-15T02:52:39;10.30;1.00
13850;DHT22;6995;52.618;13.488;2024-02-15T02:55:05;10.30;1.00
13850;DHT22;6995;52.618;13.488;2024-02-15T02:57:34;10.30;1.00
13850;DHT22;6995;52.618;13.488;2024-02-15T03:00:04;10.30;1.00
13850;DHT22;6995;52.618;13.488;2024-02-15T03:02:36;10.30;1.00
13850;DHT22;6995;52.618;13.488;2024-02-15T03:05:03;10.30;1.00
13850;DHT22;6995;52.618;13.488;2024-02-15T03:07:32;10.30;1.00
13850;DHT22;6995;52.618;13.488;2024-02-15T03:09:58;10.30;1.00
13850;DHT22;6995;52.618;13.488;2024-02-15T03:12:23;10.30;1.00
13850;DHT22;6995;52.618;13.488;2024-02-15T03:14:52;10.30;1.00
13850;DHT22;6995;52.618;13.488;2024-02-15T03:17:17;10.40;1.00
13850;DHT22;6995;52.618;13.488;2024-02-15T03:19:43;10.40;1.00
13850;DHT22;6995;52.618;13.488;2024-02-15T03:22:09;10.40;1.00
13850;DHT22;6995;52.618;13.488;2024-02-15T03:24:34;10.40;99.90
13850;DHT22;6995;52.618;13.488;2024-02-15T03:27:00;10.40;1.00
13850;DHT22;6995;52.618;13.488;2024-02-15T03:29:26;10.40;99.90
13850;DHT22;6995;52.618;13.488;2024-02-15T03:31:52;10.40;99.90
13850;DHT22;6995;52.618;13.488;2024-02-15T03:34:19;10.40;99.90
13850;DHT22;6995;52.618;13.488;2024-02-15T03:36:47;10.40;99.90
13850;DHT22;6995;52.618;13.488;2024-02-15T03:39:19;10.40;1.00
13850;DHT22;6995;52.618;13.488;2024-02-15T03:41:45;10.40;99.90
13850;DHT22;6995;52.618;13.488;2024-02-15T03:44:13;10.50;99.90
13850;DHT22;6995;52.618;13.488;2024-02-15T03:46:40;10.40;99.90
13850;DHT22;6995;52.618;13.488;2024-02-15T03:49:06;10.40;1.00
13850;DHT22;6995;52.618;13.488;2024-02-15T03:51:34;10.50;1.00
13850;DHT22;6995;52.618;13.488;2024-02-15T03:54:00;10.50;1.00
13850;DHT22;6995;52.618;13.488;2024-02-15T03:56:25;10.40;1.00
13850;DHT22;6995;52.618;13.488;2024-02-15T03:58:52;10.40;1.00
13850;DHT22;6995;52.618;13.488;2024-02-15T04:01:18;10.40;1.00
13850;DHT22;6995;52.618;13.488;2024-02-15T04:03:43;10.40;1.00
13850;DHT22;6995;52.618;13.488;2024-02-15T04:06:09;10.40;1.00
13850;DHT22;6995;52.618;13.488;2024-02-15T04:08:36;10.40;1.00
13850;DHT22;6995;52.618;13.488;2024-02-15T04:11:05;10.40;1.00
13850;DHT22;6995;52.618;13.488;2024-02-15T04:13:33;10.40;1.00
13850;DHT22;6995;52.618;13.488;2024-02-15T04:15:58;10.40;1.00
13850;DHT22;6995;52.618;13.488;2024-02-15T04:18:24;10.40;1.00
13850;DHT22;6995;52.618;13.488;2024-02-15T04:20:49;10.40;1.00
13850;DHT22;6995;52.618;13.488;2024-02-15T04:23:16;10.40;1.00
13850;DHT22;6995;52.618;13.488;2024-02-15T04:25:42;10.50;1.00
13850;DHT22;6995;52.618;13.488;2024-02-15T04:28:09;10.40;1.00
13850;DHT22;6995;52.618;13.488;2024-02-15T04:30:35;10.50;1.00
13850;DHT22;6995;52.618;13.488;2024-02-15T04:33:07;10.50;1.00
13850;DHT22;6995;52.618;13.488;2024-02-15T04:35:34;10.50;1.00
13850;DHT22;6995;52.618;13.488;2024-02-15T04:37:59;10.50;1.00
13850;DHT22;6995;52.618;13.488;2024-02-15T04:40:25;10.50;1.00
13850;DHT22;6995;52.618;13.488;2024-02-15T04:42:51;10.50;1.00
13850;DHT22;6995;52.618;13.488;2024-02-15T04:45:17;10.50;1.00
13850;DHT22;6995;52.618;13.488;2024-02-15T04:47:44;10.50;1.00
13850;DHT22;6995;52.618;13.488;2024-02-15T04:50:16;10.50;1.00
13850;DHT22;6995;52.618;13.488;2024-02-15T04:52:43;10.50;1.00
13850;DHT22;6995;52.618;13.488;2024-02-15T04:55:11;10.60;1.00
13850;DHT22;6995;52.618;13.488;2024-02-15T04:57:37;10.60;1.00
13850;DHT22;6995;52.618;13.488;2024-02-15T05:00:06;10.50;1.00
13850;DHT22;6995;52.618;13.488;2024-02-15T05:02:37;10.60;1.00
13850;DHT22;6995;52.618;13.488;2024-02-15T05:05:07;10.60;1.00
13850;DHT22;6995;52.618;13.488;2024-02-15T05:07:34;10.60;1.00
13850;DHT22;6995;52.618;13.488;2024-02-15T05:10:00;10.60;1.00
13850;DHT22;6995;52.618;13.488;2024-02-15T05:12:31;10.60;1.00
13850;DHT22;6995;52.618;13.488;2024-02-15T05:14:59;10.60;1.00
13850;DHT22;6995;52.618;13.488;2024-02-15T05:17:25;10.60;1.00
13850;DHT22;6995;52.618;13.488;2024-02-15T05:19:50;10.60;1.00
13850;DHT22;6995;52.618;13.488;2024-02-15T05:22:16;10.60;1.00
13850;DHT22;6995;52.618;13.488;2024-02-15T05:24:44;10.60;1.00
13850;DHT22;6995;52.618;13.488;2024-02-15T05:27:11;10.60;1.00
13850;DHT22;6995;52.618;13.488;2024-02-15T05:29:36;10.60;1.00
13850;DHT22;6995;52.618;13.488;2024-02-15T05:32:02;10.60;1.00
13850;DHT22;6995;52.618;13.488;2024-02-15T05:34:28;10.60;1.00
13850;DHT22;6995;52.618;13.488;2024-02-15T05:36:55;10.60;1.00
13850;DHT22;6995;52.618;13.488;2024-02-15T05:39:25;10.60;1.00
13850;DHT22;6995;52.618;13.488;2024-02-15T05:41:50;10.60;1.00
13850;DHT22;6995;52.618;13.488;2024-02-15T05:44:16;10.60;1.00
13850;DHT22;6995;52.618;13.488;2024-02-15T05:46:46;10.60;1.00
13850;DHT22;6995;52.618;13.488;2024-02-15T05:49:12;10.60;1.00
13850;DHT22;6995;52.618;13.488;2024-02-15T05:51:42;10.60;1.00
13850;DHT22;6995;52.618;13.488;2024-02-15T05:54:07;10.70;1.00
13850;DHT22;6995;52.618;13.488;2024-02-15T05:56:34;10.70;1.00
13850;DHT22;6995;52.618;13.488;2024-02-15T05:59:00;10.70;1.00
13850;DHT22;6995;52.618;13.488;2024-02-15T06:01:28;10.70;1.00
13850;DHT22;6995;52.618;13.488;2024-02-15T06:03:54;10.70;1.00
13850;DHT22;6995;52.618;13.488;2024-02-15T06:06:21;10.70;1.00
13850;DHT22;6995;52.618;13.488;2024-02-15T06:08:48;10.80;1.00
13850;DHT22;6995;52.618;13.488;2024-02-15T06:11:19;10.80;1.00
13850;DHT22;6995;52.618;13.488;2024-02-15T06:13:46;10.80;1.00
13850;DHT22;6995;52.618;13.488;2024-02-15T06:16:11;10.80;1.00
13850;DHT22;6995;52.618;13.488;2024-02-15T06:18:37;10.80;1.00
13850;DHT22;6995;52.618;13.488;2024-02-15T06:21:04;10.80;1.00
13850;DHT22;6995;52.618;13.488;2024-02-15T06:23:31;10.90;1.00
13850;DHT22;6995;52.618;13.488;2024-02-15T06:25:59;10.90;1.00
13850;DHT22;6995;52.618;13.488;2024-02-15T06:28:26;10.90;1.00
13850;DHT22;6995;52.618;13.488;2024-02-15T06:31:11;10.90;1.00
13850;DHT22;6995;52.618;13.488;2024-02-15T06:33:56;10.90;1.00
13850;DHT22;6995;52.618;13.488;2024-02-15T06:36:48;11.00;1.00
13850;DHT22;6995;52.618;13.488;2024-02-15T06:39:46;10.90;99.90
13850;DHT22;6995;52.618;13.488;2024-02-15T06:42:13;11.00;99.90
13850;DHT22;6995;52.618;13.488;2024-02-15T06:44:46;11.00;99.90
13850;DHT22;6995;52.618;13.488;2024-02-15T06:47:12;11.00;99.90
13850;DHT22;6995;52.618;13.488;2024-02-15T06:49:41;11.00;99.90
13850;DHT22;6995;52.618;13.488;2024-02-15T06:52:10;11.10;99.90
13850;DHT22;6995;52.618;13.488;2024-02-15T06:54:40;11.10;99.90
13850;DHT22;6995;52.618;13.488;2024-02-15T06:57:07;11.00;99.90
13850;DHT22;6995;52.618;13.488;2024-02-15T06:59:33;11.00;99.90
13850;DHT22;6995;52.618;13.488;2024-02-15T07:02:00;11.10;99.90
13850;DHT22;6995;52.618;13.488;2024-02-15T07:04:26;11.10;99.90
13850;DHT22;6995;52.618;13.488;2024-02-15T07:06:52;11.10;99.90
13850;DHT22;6995;52.618;13.488;2024-02-15T07:09:21;11.10;99.90
13850;DHT22;6995;52.618;13.488;2024-02-15T07:11:50;11.20;99.90
13850;DHT22;6995;52.618;13.488;2024-02-15T07:14:31;11.10;99.90
13850;DHT22;6995;52.618;13.488;2024-02-15T07:16:57;11.20;99.90
13850;DHT22;6995;52.618;13.488;2024-02-15T07:19:24;11.20;99.90
13850;DHT22;6995;52.618;13.488;2024-02-15T07:21:51;11.30;99.90
13850;DHT22;6995;52.618;13.488;2024-02-15T07:24:18;11.20;99.90
13850;DHT22;6995;52.618;13.488;2024-02-15T07:26:44;11.30;99.90
13850;DHT22;6995;52.618;13.488;2024-02-15T07:29:10;11.20;99.90
13850;DHT22;6995;52.618;13.488;2024-02-15T07:31:36;11.20;99.90
13850;DHT22;6995;52.618;13.488;2024-02-15T07:34:02;11.20;99.90
13850;DHT22;6995;52.618;13.488;2024-02-15T07:36:28;11.30;99.90
13850;DHT22;6995;52.618;13.488;2024-02-15T07:38:57;11.30;99.90
13850;DHT22;6995;52.618;13.488;2024-02-15T07:41:29;11.30;99.90
13850;DHT22;6995;52.618;13.488;2024-02-15T07:43:55;11.30;99.90
13850;DHT22;6995;52.618;13.488;2024-02-15T07:46:21;11.30;99.90
13850;DHT22;6995;52.618;13.488;2024-02-15T07:48:47;11.30;99.90
13850;DHT22;6995;52.618;13.488;2024-02-15T07:51:14;11.30;99.90
13850;DHT22;6995;52.618;13.488;2024-02-15T07:53:41;11.30;99.90
13850;DHT22;6995;52.618;13.488;2024-02-15T07:56:08;11.30;99.90
13850;DHT22;6995;52.618;13.488;2024-02-15T07:58:41;11.30;99.90
13850;DHT22;6995;52.618;13.488;2024-02-15T08:01:08;11.40;99.90
13850;DHT22;6995;52.618;13.488;2024-02-15T08:03:35;11.40;99.90
13850;DHT22;6995;52.618;13.488;2024-02-15T08:06:02;11.50;99.90
13850;DHT22;6995;52.618;13.488;2024-02-15T08:08:34;11.60;99.90
13850;DHT22;6995;52.618;13.488;2024-02-15T08:11:03;11.60;5.80
13850;DHT22;6995;52.618;13.488;2024-02-15T08:13:29;11.70;11.20
13850;DHT22;6995;52.618;13.488;2024-02-15T08:15:55;11.70;1.00
13850;DHT22;6995;52.618;13.488;2024-02-15T08:18:21;11.80;1.00
13850;DHT22;6995;52.618;13.488;2024-02-15T08:20:47;11.90;1.00
13850;DHT22;6995;52.618;13.488;2024-02-15T08:23:13;11.90;1.00
13850;DHT22;6995;52.618;13.488;2024-02-15T08:25:39;11.90;1.00
13850;DHT22;6995;52.618;13.488;2024-02-15T08:28:06;12.00;1.00
13850;DHT22;6995;52.618;13.488;2024-02-15T08:30:33;12.10;1.00
13850;DHT22;6995;52.618;13.488;2024-02-15T08:32:58;12.10;1.00
13850;DHT22;6995;52.618;13.488;2024-02-15T08:35:24;12.20;1.00
13850;DHT22;6995;52.618;13.488;2024-02-15T08:37:50;12.20;1.00
13850;DHT22;6995;52.618;13.488;2024-02-15T08:40:18;12.30;1.00
13850;DHT22;6995;52.618;13.488;2024-02-15T08:42:50;12.30;1.00
13850;DHT22;6995;52.618;13.488;2024-02-15T08:45:15;12.20;1.00
13850;DHT22;6995;52.618;13.488;2024-02-15T08:47:42;12.20;1.00
13850;DHT22;6995;52.618;13.488;2024-02-15T08:50:09;12.10;1.00
13850;DHT22;6995;52.618;13.488;2024-02-15T08:52:36;12.10;1.00
13850;DHT22;6995;52.618;13.488;2024-02-15T08:55:07;12.00;1.00
13850;DHT22;6995;52.618;13.488;2024-02-15T08:57:34;12.00;1.00
13850;DHT22;6995;52.618;13.488;2024-02-15T09:00:03;12.10;1.00
13850;DHT22;6995;52.618;13.488;2024-02-15T09:02:31;12.20;1.00
13850;DHT22;6995;52.618;13.488;2024-02-15T09:04:58;12.20;1.00
13850;DHT22;6995;52.618;13.488;2024-02-15T09:07:25;12.20;1.00
13850;DHT22;6995;52.618;13.488;2024-02-15T09:09:51;12.30;1.00
13850;DHT22;6995;52.618;13.488;2024-02-15T09:12:16;12.40;99.90
13850;DHT22;6995;52.618;13.488;2024-02-15T09:14:42;12.40;99.90
13850;DHT22;6995;52.618;13.488;2024-02-15T09:17:08;12.50;99.90
13850;DHT22;6995;52.618;13.488;2024-02-15T09:19:34;12.60;99.90
13850;DHT22;6995;52.618;13.488;2024-02-15T09:22:02;12.70;99.90
13850;DHT22;6995;52.618;13.488;2024-02-15T09:24:32;12.80;99.90
13850;DHT22;6995;52.618;13.488;2024-02-15T09:27:02;13.00;99.90
13850;DHT22;6995;52.618;13.488;2024-02-15T09:29:28;13.10;99.90
13850;DHT22;6995;52.618;13.488;2024-02-15T09:32:00;13.10;99.90
13850;DHT22;6995;52.618;13.488;2024-02-15T09:34:27;13.10;99.90
13850;DHT22;6995;52.618;13.488;2024-02-15T09:36:53;13.10;99.90
13850;DHT22;6995;52.618;13.488;2024-02-15T09:39:19;13.20;99.90
13850;DHT22;6995;52.618;13.488;2024-02-15T09:41:44;13.10;79.00
13850;DHT22;6995;52.618;13.488;2024-02-15T09:44:10;13.00;99.90
13850;DHT22;6995;52.618;13.488;2024-02-15T09:46:43;13.10;99.90
13850;DHT22;6995;52.618;13.488;2024-02-15T09:49:20;13.00;99.90
13850;DHT22;6995;52.618;13.488;2024-02-15T09:51:47;12.70;99.90
13850;DHT22;6995;52.618;13.488;2024-02-15T09:54:15;12.80;99.90
13850;DHT22;6995;52.618;13.488;2024-02-15T09:56:49;12.60;99.90
13850;DHT22;6995;52.618;13.488;2024-02-15T09:59:16;12.50;99.90
13850;DHT22;6995;52.618;13.488;2024-02-15T10:01:42;12.60;99.90
13850;DHT22;6995;52.618;13.488;2024-02-15T10:04:11;12.50;99.90
13850;DHT22;6995;52.618;13.488;2024-02-15T10:06:41;12.60;1.00
13850;DHT22;6995;52.618;13.488;2024-02-15T10:09:29;12.60;1.00
13850;DHT22;6995;52.618;13.488;2024-02-15T10:11:59;12.60;99.90
13850;DHT22;6995;52.618;13.488;2024-02-15T10:14:29;12.60;99.90
13850;DHT22;6995;52.618;13.488;2024-02-15T10:16:56;12.70;99.90
13850;DHT22;6995;52.618;13.488;2024-02-15T10:19:23;12.80;99.90
13850;DHT22;6995;52.618;13.488;2024-02-15T10:21:55;12.80;99.90
13850;DHT22;6995;52.618;13.488;2024-02-15T10:24:31;12.90;99.90
13850;DHT22;6995;52.618;13.488;2024-02-15T10:27:01;13.10;99.90
13850;DHT22;6995;52.618;13.488;2024-02-15T10:29:32;13.10;99.90
13850;DHT22;6995;52.618;13.488;2024-02-15T10:31:59;13.20;99.90
13850;DHT22;6995;52.618;13.488;2024-02-15T10:34:26;13.30;93.50
13850;DHT22;6995;52.618;13.488;2024-02-15T10:36:54;13.30;45.00
13850;DHT22;6995;52.618;13.488;2024-02-15T10:39:22;13.30;88.30
13850;DHT22;6995;52.618;13.488;2024-02-15T10:41:51;13.40;56.70
13850;DHT22;6995;52.618;13.488;2024-02-15T10:44:19;13.60;88.90
13850;DHT22;6995;52.618;13.488;2024-02-15T10:46:49;13.70;1.00
13850;DHT22;6995;52.618;13.488;2024-02-15T10:49:17;13.70;1.00
13850;DHT22;6995;52.618;13.488;2024-02-15T10:52:03;13.60;1.00
13850;DHT22;6995;52.618;13.488;2024-02-15T10:57:05;13.70;1.00
13850;DHT22;6995;52.618;13.488;2024-02-15T10:59:35;13.90;34.30
13850;DHT22;6995;52.618;13.488;2024-02-15T11:02:15;14.00;1.00
13850;DHT22;6995;52.618;13.488;2024-02-15T11:04:47;14.00;1.00
13850;DHT22;6995;52.618;13.488;2024-02-15T11:07:14;14.00;1.00
13850;DHT22;6995;52.618;13.488;2024-02-15T11:09:42;14.30;1.00
13850;DHT22;6995;52.618;13.488;2024-02-15T11:12:08;14.30;1.00
13850;DHT22;6995;52.618;13.488;2024-02-15T11:14:36;14.50;1.00
13850;DHT22;6995;52.618;13.488;2024-02-15T11:17:02;14.40;1.00
13850;DHT22;6995;52.618;13.488;2024-02-15T11:22:10;14.30;1.00
13850;DHT22;6995;52.618;13.488;2024-02-15T11:24:37;14.20;1.00
13850;DHT22;6995;52.618;13.488;2024-02-15T11:27:03;14.30;1.00
13850;DHT22;6995;52.618;13.488;2024-02-15T11:29:53;14.50;1.00
13850;DHT22;6995;52.618;13.488;2024-02-15T11:32:40;14.40;1.00
13850;DHT22;6995;52.618;13.488;2024-02-15T11:42:59;13.80;1.00
13850;DHT22;6995;52.618;13.488;2024-02-15T11:45:26;13.90;6.50
13850;DHT22;6995;52.618;13.488;2024-02-15T11:47:55;14.20;16.10
13850;DHT22;6995;52.618;13.488;2024-02-15T11:50:22;14.50;1.00
13850;DHT22;6995;52.618;13.488;2024-02-15T11:52:48;14.70;1.00
13850;DHT22;6995;52.618;13.488;2024-02-15T11:55:32;15.00;1.00
13850;DHT22;6995;52.618;13.488;2024-02-15T11:58:02;15.00;1.00
13850;DHT22;6995;52.618;13.488;2024-02-15T12:00:34;14.90;1.00
13850;DHT22;6995;52.618;13.488;2024-02-15T12:03:19;14.90;1.00
13850;DHT22;6995;52.618;13.488;2024-02-15T12:06:17;14.90;1.00
13850;DHT22;6995;52.618;13.488;2024-02-15T12:09:02;14.60;1.00
13850;DHT22;6995;52.618;13.488;2024-02-15T12:11:58;14.60;1.00
13850;DHT22;6995;52.618;13.488;2024-02-15T12:14:41;14.60;1.00
13850;DHT22;6995;52.618;13.488;2024-02-15T12:17:26;14.50;1.00
13850;DHT22;6995;52.618;13.488;2024-02-15T12:20:10;14.40;1.00
13850;DHT22;6995;52.618;13.488;2024-02-15T12:22:45;14.20;24.00
13850;DHT22;6995;52.618;13.488;2024-02-15T12:25:15;13.90;99.90
13850;DHT22;6995;52.618;13.488;2024-02-15T12:27:42;13.90;99.90
13850;DHT22;6995;52.618;13.488;2024-02-15T12:30:13;13.80;99.90
13850;DHT22;6995;52.618;13.488;2024-02-15T12:32:39;13.70;99.90
13850;DHT22;6995;52.618;13.488;2024-02-15T12:35:14;13.80;99.90
13850;DHT22;6995;52.618;13.488;2024-02-15T12:37:45;13.80;99.90
13850;DHT22;6995;52.618;13.488;2024-02-15T12:40:12;14.10;99.90
13850;DHT22;6995;52.618;13.488;2024-02-15T12:42:42;14.30;99.90
13850;DHT22;6995;52.618;13.488;2024-02-15T12:45:18;14.20;18.60
13850;DHT22;6995;52.618;13.488;2024-02-15T12:47:47;14.30;53.40
13850;DHT22;6995;52.618;13.488;2024-02-15T12:50:16;14.30;1.00
13850;DHT22;6995;52.618;13.488;2024-02-15T12:52:46;14.20;1.00
13850;DHT22;6995;52.618;13.488;2024-02-15T12:55:22;14.20;1.00
13850;DHT22;6995;52.618;13.488;2024-02-15T12:57:54;14.30;1.00
13850;DHT22;6995;52.618;13.488;2024-02-15T13:00:26;14.30;1.00
13850;DHT22;6995;52.618;13.488;2024-02-15T13:02:55;14.40;1.00
13850;DHT22;6995;52.618;13.488;2024-02-15T13:05:22;14.50;1.00
13850;DHT22;6995;52.618;13.488;2024-02-15T13:07:49;14.50;1.00
13850;DHT22;6995;52.618;13.488;2024-02-15T13:10:15;14.50;1.00
13850;DHT22;6995;52.618;13.488;2024-02-15T13:12:42;14.60;1.00
13850;DHT22;6995;52.618;13.488;2024-02-15T13:15:09;14.60;1.00
13850;DHT22;6995;52.618;13.488;2024-02-15T13:17:50;14.60;1.00
13850;DHT22;6995;52.618;13.488;2024-02-15T13:20:25;14.60;1.00
13850;DHT22;6995;52.618;13.488;2024-02-15T13:23:05;14.70;1.00
13850;DHT22;6995;52.618;13.488;2024-02-15T13:25:37;14.80;1.00
13850;DHT22;6995;52.618;13.488;2024-02-15T13:28:05;14.70;1.00
13850;DHT22;6995;52.618;13.488;2024-02-15T13:30:31;14.60;1.00
13850;DHT22;6995;52.618;13.488;2024-02-15T13:32:57;14.50;1.00
13850;DHT22;6995;52.618;13.488;2024-02-15T13:35:23;14.60;1.00
13850;DHT22;6995;52.618;13.488;2024-02-15T13:37:53;14.60;1.00
13850;DHT22;6995;52.618;13.488;2024-02-15T13:40:22;14.70;1.00
13850;DHT22;6995;52.618;13.488;2024-02-15T13:42:55;14.80;1.00
13850;DHT22;6995;52.618;13.488;2024-02-15T13:45:28;14.90;1.00
13850;DHT22;6995;52.618;13.488;2024-02-15T13:47:59;14.90;1.00
13850;DHT22;6995;52.618;13.488;2024-02-15T13:50:28;14.90;1.00
13850;DHT22;6995;52.618;13.488;2024-02-15T13:52:55;15.00;1.00
13850;DHT22;6995;52.618;13.488;2024-02-15T13:55:21;15.00;1.00
13850;DHT22;6995;52.618;13.488;2024-02-15T13:57:47;15.00;1.00
13850;DHT22;6995;52.618;13.488;2024-02-15T14:00:14;15.10;1.00
13850;DHT22;6995;52.618;13.488;2024-02-15T14:03:00;15.10;1.00
13850;DHT22;6995;52.618;13.488;2024-02-15T14:05:28;15.10;1.00
13850;DHT22;6995;52.618;13.488;2024-02-15T14:08:03;15.00;1.00
13850;DHT22;6995;52.618;13.488;2024-02-15T14:10:32;15.00;1.00
13850;DHT22;6995;52.618;13.488;2024-02-15T14:13:02;14.90;1.00
13850;DHT22;6995;52.618;13.488;2024-02-15T14:15:33;14.90;1.00
13850;DHT22;6995;52.618;13.488;2024-02-15T14:18:10;14.80;1.00
13850;DHT22;6995;52.618;13.488;2024-02-15T14:20:39;14.80;1.00
13850;DHT22;6995;52.618;13.488;2024-02-15T14:23:07;14.70;1.00
13850;DHT22;6995;52.618;13.488;2024-02-15T14:25:39;14.60;1.00
13850;DHT22;6995;52.618;13.488;2024-02-15T14:28:05;14.60;1.00
13850;DHT22;6995;52.618;13.488;2024-02-15T14:30:34;14.50;1.00
13850;DHT22;6995;52.618;13.488;2024-02-15T14:33:27;14.50;1.00
13850;DHT22;6995;52.618;13.488;2024-02-15T14:35:52;14.50;1.00
13850;DHT22;6995;52.618;13.488;2024-02-15T14:38:21;14.50;1.00
13850;DHT22;6995;52.618;13.488;2024-02-15T14:40:50;14.40;1.00
13850;DHT22;6995;52.618;13.488;2024-02-15T14:43:22;14.50;1.00
13850;DHT22;6995;52.618;13.488;2024-02-15T14:46:04;14.50;1.00
13850;DHT22;6995;52.618;13.488;2024-02-15T14:48:34;14.40;1.00
13850;DHT22;6995;52.618;13.488;2024-02-15T14:50:59;14.30;1.00
13850;DHT22;6995;52.618;13.488;2024-02-15T14:53:26;14.20;1.00
13850;DHT22;6995;52.618;13.488;2024-02-15T14:55:52;14.20;1.00
13850;DHT22;6995;52.618;13.488;2024-02-15T14:58:20;14.10;1.00
13850;DHT22;6995;52.618;13.488;2024-02-15T15:00:47;14.10;1.00
13850;DHT22;6995;52.618;13.488;2024-02-15T15:03:14;14.10;1.00
13850;DHT22;6995;52.618;13.488;2024-02-15T15:05:40;14.20;1.00
13850;DHT22;6995;52.618;13.488;2024-02-15T15:08:25;14.10;1.00
13850;DHT22;6995;52.618;13.488;2024-02-15T15:11:10;14.20;1.00
13850;DHT22;6995;52.618;13.488;2024-02-15T15:13:54;14.10;1.00
13850;DHT22;6995;52.618;13.488;2024-02-15T15:16:21;14.10;1.00
13850;DHT22;6995;52.618;13.488;2024-02-15T15:18:49;14.00;1.00
13850;DHT22;6995;52.618;13.488;2024-02-15T15:21:18;14.00;1.00
13850;DHT22;6995;52.618;13.488;2024-02-15T15:23:44;13.90;15.10
13850;DHT22;6995;52.618;13.488;2024-02-15T15:26:11;13.90;33.70
13850;DHT22;6995;52.618;13.488;2024-02-15T15:28:40;13.80;36.00
13850;DHT22;6995;52.618;13.488;2024-02-15T15:31:06;13.80;60.70
13850;DHT22;6995;52.618;13.488;2024-02-15T15:33:32;13.70;54.70
13850;DHT22;6995;52.618;13.488;2024-02-15T15:36:02;13.70;95.90
13850;DHT22;6995;52.618;13.488;2024-02-15T15:38:29;13.70;99.90
13850;DHT22;6995;52.618;13.488;2024-02-15T15:40:55;13.60;99.90
13850;DHT22;6995;52.618;13.488;2024-02-15T15:43:21;13.60;99.90
13850;DHT22;6995;52.618;13.488;2024-02-15T15:45:47;13.50;99.90
13850;DHT22;6995;52.618;13.488;2024-02-15T15:48:13;13.50;99.90
13850;DHT22;6995;52.618;13.488;2024-02-15T15:50:39;13.50;99.90
13850;DHT22;6995;52.618;13.488;2024-02-15T15:53:06;13.40;99.90
13850;DHT22;6995;52.618;13.488;2024-02-15T15:55:32;13.40;99.90
13850;DHT22;6995;52.618;13.488;2024-02-15T15:57:58;13.40;99.90
13850;DHT22;6995;52.618;13.488;2024-02-15T16:00:24;13.40;99.90
13850;DHT22;6995;52.618;13.488;2024-02-15T16:02:50;13.30;99.90